createdAt,value
2023-01-07T00:00:11.087Z,91.09
2023-01-07T00:01:15.088Z,91.22
2023-01-07T00:02:11.079Z,91.05
2023-01-07T00:03:11.076Z,91.02
2023-01-07T00:04:12.082Z,90.96
2023-01-07T00:05:11.087Z,91.22
2023-01-07T00:06:15.088Z,91.42
2023-01-07T00:07:11.960Z,91.37
2023-01-07T00:08:11.090Z,91.17
2023-01-07T00:09:12.081Z,91.23
2023-01-07T00:10:11.076Z,91.33
2023-01-07T00:11:11.091Z,91.20
2023-01-07T00:12:11.082Z,91.00
2023-01-07T00:13:11.078Z,91.02
2023-01-07T00:14:11.081Z,90.92
2023-01-07T00:15:11.081Z,91.06
2023-01-07T00:16:11.135Z,91.00
2023-01-07T00:17:11.082Z,90.70
2023-01-07T00:18:11.084Z,90.56
2023-01-07T00:19:12.092Z,90.70
2023-01-07T00:20:11.085Z,90.69
2023-01-07T00:21:12.082Z,90.68
2023-01-07T00:22:11.080Z,90.53
2023-01-07T00:23:11.081Z,90.72
2023-01-07T00:24:11.079Z,90.99
2023-01-07T00:25:11.080Z,90.92
2023-01-07T00:26:17.084Z,90.89
2023-01-07T00:27:11.083Z,90.68
2023-01-07T00:28:11.080Z,90.66
2023-01-07T00:29:11.079Z,90.62
2023-01-07T00:30:11.103Z,90.50
2023-01-07T00:31:14.123Z,90.43
2023-01-07T00:32:11.083Z,90.40
2023-01-07T00:33:11.083Z,90.20
2023-01-07T00:34:13.079Z,90.20
2023-01-07T00:35:15.087Z,90.12
2023-01-07T00:36:12.137Z,89.91
2023-01-07T00:37:15.090Z,89.79
2023-01-07T00:38:11.079Z,90.01
2023-01-07T00:39:14.095Z,90.32
2023-01-07T00:40:11.090Z,90.60
2023-01-07T00:41:11.081Z,90.96
2023-01-07T00:42:15.084Z,91.27
2023-01-07T00:43:11.087Z,91.55
2023-01-07T00:44:11.087Z,91.74
2023-01-07T00:45:11.091Z,92.41
2023-01-07T00:46:12.115Z,92.75
2023-01-07T00:47:11.084Z,93.03
2023-01-07T00:48:11.080Z,93.05
2023-01-07T00:49:11.087Z,93.38
2023-01-07T00:50:11.086Z,93.75
2023-01-07T00:51:13.101Z,93.71
2023-01-07T00:52:11.085Z,93.83
2023-01-07T00:53:11.086Z,93.92
2023-01-07T00:54:11.085Z,94.25
2023-01-07T00:55:11.127Z,94.07
2023-01-07T00:56:13.096Z,94.41
2023-01-07T00:57:12.080Z,94.60
2023-01-07T00:58:14.098Z,94.29
2023-01-07T00:59:11.094Z,94.32
2023-01-07T01:00:14.068Z,94.32
2023-01-07T01:01:11.252Z,94.45
2023-01-07T01:02:11.263Z,94.41
2023-01-07T01:03:13.059Z,94.76
2023-01-07T01:04:12.067Z,94.67
2023-01-07T01:05:11.060Z,94.41
2023-01-07T01:06:13.060Z,94.19
2023-01-07T01:07:11.059Z,94.31
2023-01-07T01:08:11.062Z,94.12
2023-01-07T01:09:11.066Z,94.02
2023-01-07T01:10:11.059Z,93.88
2023-01-07T01:11:11.071Z,93.96
2023-01-07T01:12:11.062Z,93.64
2023-01-07T01:13:16.737Z,93.36
2023-01-07T01:14:11.073Z,93.20
2023-01-07T01:15:15.080Z,93.10
2023-01-07T01:16:15.192Z,92.85
2023-01-07T01:17:11.069Z,92.73
2023-01-07T01:18:11.063Z,92.66
2023-01-07T01:19:11.062Z,92.46
2023-01-07T01:20:12.080Z,92.78
2023-01-07T01:21:11.059Z,92.68
2023-01-07T01:22:11.057Z,92.43
2023-01-07T01:23:11.070Z,92.38
2023-01-07T01:24:11.067Z,92.36
2023-01-07T01:25:11.061Z,92.21
2023-01-07T01:26:14.118Z,92.24
2023-01-07T01:27:11.062Z,92.21
2023-01-07T01:28:11.080Z,92.10
2023-01-07T01:29:11.062Z,91.93
2023-01-07T01:30:11.090Z,92.03
2023-01-07T01:31:11.190Z,92.04
2023-01-07T01:32:11.082Z,91.95
2023-01-07T01:33:11.063Z,91.95
2023-01-07T01:34:11.059Z,91.86
2023-01-07T01:35:11.070Z,91.77
2023-01-07T01:36:12.059Z,91.48
2023-01-07T01:37:11.058Z,91.38
2023-01-07T01:38:11.072Z,91.36
2023-01-07T01:39:11.061Z,91.23
2023-01-07T01:40:11.066Z,91.59
2023-01-07T01:41:12.069Z,91.48
2023-01-07T01:42:15.066Z,91.37
2023-01-07T01:43:19.065Z,91.33
2023-01-07T01:44:19.063Z,91.01
2023-01-07T01:45:11.082Z,90.92
2023-01-07T01:46:20.132Z,90.82
2023-01-07T01:47:20.065Z,90.86
2023-01-07T01:48:11.066Z,90.81
2023-01-07T01:49:19.079Z,90.88
2023-01-07T01:50:22.066Z,90.78
2023-01-07T01:51:11.081Z,90.68
2023-01-07T01:52:16.066Z,90.53
2023-01-07T01:53:14.096Z,90.44
2023-01-07T01:54:13.062Z,90.56
2023-01-07T01:55:11.069Z,90.58
2023-01-07T01:56:16.073Z,90.49
2023-01-07T01:57:11.072Z,90.34
2023-01-07T01:58:14.068Z,90.19
2023-01-07T01:59:13.073Z,89.94
2023-01-07T02:00:11.065Z,89.90
2023-01-07T02:01:11.183Z,90.02
2023-01-07T02:02:11.288Z,90.06
2023-01-07T02:03:13.067Z,89.90
2023-01-07T02:04:11.073Z,89.70
2023-01-07T02:05:11.067Z,89.63
2023-01-07T02:06:18.072Z,89.49
2023-01-07T02:07:16.067Z,89.46
2023-01-07T02:08:11.065Z,89.49
2023-01-07T02:09:13.066Z,89.30
2023-01-07T02:10:19.072Z,89.22
2023-01-07T02:11:22.074Z,89.25
2023-01-07T02:12:22.072Z,89.17
2023-01-07T02:13:19.087Z,89.10
2023-01-07T02:14:19.068Z,89.04
2023-01-07T02:15:20.065Z,89.05
2023-01-07T02:16:19.106Z,89.17
2023-01-07T02:17:19.070Z,89.00
2023-01-07T02:18:19.068Z,89.04
2023-01-07T02:19:19.066Z,89.04
2023-01-07T02:20:19.070Z,89.14
2023-01-07T02:21:19.069Z,89.04
2023-01-07T02:22:19.082Z,89.05
2023-01-07T02:23:19.073Z,89.17
2023-01-07T02:24:19.071Z,89.12
2023-01-07T02:25:21.095Z,89.33
2023-01-07T02:26:19.072Z,89.83
2023-01-07T02:27:20.211Z,89.85
2023-01-07T02:28:19.069Z,89.70
2023-01-07T02:29:19.062Z,89.86
2023-01-07T02:30:19.068Z,90.07
2023-01-07T02:31:19.112Z,90.40
2023-01-07T02:32:19.087Z,90.03
2023-01-07T02:33:19.066Z,89.84
2023-01-07T02:34:20.064Z,89.97
2023-01-07T02:35:19.072Z,90.15
2023-01-07T02:36:19.077Z,90.45
2023-01-07T02:37:20.071Z,90.72
2023-01-07T02:38:21.066Z,90.68
2023-01-07T02:39:19.065Z,90.84
2023-01-07T02:40:20.086Z,90.86
2023-01-07T02:41:21.077Z,91.30
2023-01-07T02:42:22.080Z,91.16
2023-01-07T02:43:21.072Z,91.71
2023-01-07T02:44:21.095Z,92.00
2023-01-07T02:45:19.074Z,92.08
2023-01-07T02:46:21.079Z,91.79
2023-01-07T02:47:19.091Z,91.98
2023-01-07T02:48:12.070Z,91.91
2023-01-07T02:49:11.069Z,91.83
2023-01-07T02:50:11.081Z,91.73
2023-01-07T02:51:11.079Z,91.96
2023-01-07T02:52:21.068Z,91.79
2023-01-07T02:53:15.073Z,91.56
2023-01-07T02:54:21.083Z,91.63
2023-01-07T02:55:14.071Z,91.50
2023-01-07T02:56:21.077Z,91.28
2023-01-07T02:57:21.072Z,91.15
2023-01-07T02:58:19.070Z,90.97
2023-01-07T02:59:19.085Z,91.05
2023-01-07T03:00:21.076Z,91.06
2023-01-07T03:01:19.251Z,90.73
2023-01-07T03:02:19.073Z,90.98
2023-01-07T03:03:19.078Z,90.98
2023-01-07T03:04:19.116Z,90.88
2023-01-07T03:05:21.075Z,90.84
2023-01-07T03:06:19.083Z,90.77
2023-01-07T03:07:19.082Z,90.86
2023-01-07T03:08:23.082Z,91.00
2023-01-07T03:09:19.074Z,90.78
2023-01-07T03:10:21.071Z,90.71
2023-01-07T03:11:11.072Z,90.83
2023-01-07T03:12:19.072Z,90.77
2023-01-07T03:13:16.103Z,90.72
2023-01-07T03:14:19.074Z,90.62
2023-01-07T03:15:19.076Z,90.57
2023-01-07T03:16:15.134Z,90.82
2023-01-07T03:17:13.075Z,90.84
2023-01-07T03:18:15.072Z,90.46
2023-01-07T03:19:20.076Z,90.37
2023-01-07T03:20:11.076Z,90.08
2023-01-07T03:21:13.076Z,90.30
2023-01-07T03:22:11.071Z,90.38
2023-01-07T03:23:13.084Z,90.41
2023-01-07T03:24:11.075Z,90.36
2023-01-07T03:25:12.109Z,90.48
2023-01-07T03:26:11.082Z,90.40
2023-01-07T03:27:11.077Z,90.58
2023-01-07T03:28:11.080Z,90.66
2023-01-07T03:29:11.087Z,90.46
2023-01-07T03:30:13.073Z,90.65
2023-01-07T03:31:13.077Z,90.47
2023-01-07T03:32:23.082Z,90.64
2023-01-07T03:33:15.075Z,90.44
2023-01-07T03:34:13.078Z,90.16
2023-01-07T03:35:11.075Z,90.29
2023-01-07T03:36:12.109Z,90.41
2023-01-07T03:37:16.076Z,90.46
2023-01-07T03:38:11.092Z,90.71
2023-01-07T03:39:11.089Z,90.70
2023-01-07T03:40:13.075Z,90.63
2023-01-07T03:41:11.074Z,90.40
2023-01-07T03:42:15.088Z,90.28
2023-01-07T03:43:15.077Z,90.53
2023-01-07T03:44:11.076Z,90.41
2023-01-07T03:45:15.079Z,90.64
2023-01-07T03:46:11.181Z,90.60
2023-01-07T03:47:11.078Z,90.52
2023-01-07T03:48:11.079Z,90.55
2023-01-07T03:49:11.078Z,90.57
2023-01-07T03:50:11.076Z,90.23
2023-01-07T03:51:11.080Z,90.20
2023-01-07T03:52:11.102Z,90.14
2023-01-07T03:53:11.086Z,90.03
2023-01-07T03:54:11.127Z,90.20
2023-01-07T03:55:11.079Z,90.16
2023-01-07T03:56:11.078Z,89.93
2023-01-07T03:57:11.079Z,90.10
2023-01-07T03:58:11.087Z,89.87
2023-01-07T03:59:11.098Z,89.95
2023-01-07T04:00:11.065Z,89.79
2023-01-07T04:01:11.222Z,89.77
2023-01-07T04:02:11.357Z,89.63
2023-01-07T04:03:11.071Z,89.51
2023-01-07T04:04:11.098Z,89.50
2023-01-07T04:05:11.065Z,89.29
2023-01-07T04:06:11.063Z,89.50
2023-01-07T04:07:11.076Z,89.41
2023-01-07T04:08:11.069Z,89.29
2023-01-07T04:09:11.066Z,89.14
2023-01-07T04:10:11.074Z,89.33
2023-01-07T04:11:11.062Z,89.39
2023-01-07T04:12:11.063Z,89.17
2023-01-07T04:13:11.076Z,88.86
2023-01-07T04:14:11.062Z,88.94
2023-01-07T04:15:11.066Z,89.29
2023-01-07T04:16:11.094Z,89.30
2023-01-07T04:17:11.062Z,89.28
2023-01-07T04:18:11.068Z,89.06
2023-01-07T04:19:11.074Z,89.04
2023-01-07T04:20:11.061Z,88.98
2023-01-07T04:21:11.068Z,89.00
2023-01-07T04:22:12.068Z,88.94
2023-01-07T04:23:11.069Z,88.86
2023-01-07T04:24:11.070Z,88.74
2023-01-07T04:25:11.066Z,89.22
2023-01-07T04:26:11.062Z,89.50
2023-01-07T04:27:11.075Z,89.61
2023-01-07T04:28:11.065Z,89.83
2023-01-07T04:29:11.065Z,89.85
2023-01-07T04:30:11.066Z,90.10
2023-01-07T04:31:11.179Z,90.31
2023-01-07T04:32:11.069Z,90.31
2023-01-07T04:33:11.076Z,90.34
2023-01-07T04:34:11.068Z,90.27
2023-01-07T04:35:11.071Z,90.21
2023-01-07T04:36:11.079Z,90.39
2023-01-07T04:37:11.065Z,90.28
2023-01-07T04:38:11.073Z,90.15
2023-01-07T04:39:11.072Z,90.15
2023-01-07T04:40:11.072Z,90.42
2023-01-07T04:41:11.069Z,90.31
2023-01-07T04:42:11.077Z,90.02
2023-01-07T04:43:11.070Z,90.42
2023-01-07T04:44:11.071Z,90.39
2023-01-07T04:45:11.090Z,90.38
2023-01-07T04:46:11.129Z,90.34
2023-01-07T04:47:11.065Z,90.67
2023-01-07T04:48:11.075Z,90.55
2023-01-07T04:49:11.075Z,90.41
2023-01-07T04:50:11.067Z,90.38
2023-01-07T04:51:11.082Z,90.34
2023-01-07T04:52:11.082Z,90.46
2023-01-07T04:53:11.074Z,90.59
2023-01-07T04:54:11.074Z,90.75
2023-01-07T04:55:11.113Z,90.62
2023-01-07T04:56:11.069Z,90.56
2023-01-07T04:57:11.076Z,90.69
2023-01-07T04:58:11.068Z,90.55
2023-01-07T04:59:11.072Z,90.94
2023-01-07T05:00:11.091Z,90.89
2023-01-07T05:01:11.226Z,90.82
2023-01-07T05:02:11.174Z,91.05
2023-01-07T05:03:11.085Z,91.41
2023-01-07T05:04:11.178Z,91.69
2023-01-07T05:05:11.072Z,91.71
2023-01-07T05:06:11.095Z,91.65
2023-01-07T05:07:11.082Z,91.44
2023-01-07T05:08:11.090Z,91.66
2023-01-07T05:09:11.082Z,91.58
2023-01-07T05:10:11.077Z,91.70
2023-01-07T05:11:11.070Z,91.74
2023-01-07T05:12:11.073Z,91.61
2023-01-07T05:13:15.072Z,91.93
2023-01-07T05:14:11.071Z,92.29
2023-01-07T05:15:11.074Z,91.66
2023-01-07T05:16:11.071Z,91.62
2023-01-07T05:17:11.074Z,91.63
2023-01-07T05:18:12.074Z,91.50
2023-01-07T05:19:11.068Z,91.50
2023-01-07T05:20:11.068Z,91.35
2023-01-07T05:21:11.087Z,91.69
2023-01-07T05:22:11.073Z,91.57
2023-01-07T05:23:11.088Z,91.67
2023-01-07T05:24:11.086Z,91.81
2023-01-07T05:25:11.088Z,91.95
2023-01-07T05:26:11.072Z,91.78
2023-01-07T05:27:11.086Z,91.59
2023-01-07T05:28:11.073Z,91.56
2023-01-07T05:29:11.078Z,91.39
2023-01-07T05:30:11.088Z,91.26
2023-01-07T05:31:11.168Z,91.15
2023-01-07T05:32:11.070Z,90.95
2023-01-07T05:33:11.084Z,91.16
2023-01-07T05:34:11.074Z,91.32
2023-01-07T05:35:11.081Z,91.30
2023-01-07T05:36:11.089Z,91.33
2023-01-07T05:37:11.081Z,91.29
2023-01-07T05:38:11.072Z,91.13
2023-01-07T05:39:11.084Z,91.00
2023-01-07T05:40:11.075Z,91.07
2023-01-07T05:41:11.082Z,91.11
2023-01-07T05:42:11.109Z,91.27
2023-01-07T05:43:11.076Z,91.26
2023-01-07T05:44:11.075Z,91.19
2023-01-07T05:45:11.083Z,91.21
2023-01-07T05:46:11.164Z,91.06
2023-01-07T05:47:11.077Z,91.07
2023-01-07T05:48:11.077Z,91.23
2023-01-07T05:49:11.072Z,91.14
2023-01-07T05:50:12.073Z,91.28
2023-01-07T05:51:11.077Z,91.56
2023-01-07T05:52:11.077Z,91.43
2023-01-07T05:53:11.078Z,91.17
2023-01-07T05:54:11.079Z,91.27
2023-01-07T05:55:11.073Z,91.32
2023-01-07T05:56:11.093Z,91.59
2023-01-07T05:57:11.079Z,91.48
2023-01-07T05:58:11.086Z,91.38
2023-01-07T05:59:11.077Z,91.52
2023-01-07T06:00:11.078Z,91.46
2023-01-07T06:01:11.122Z,91.42
2023-01-07T06:02:11.087Z,91.08
2023-01-07T06:03:11.109Z,91.19
2023-01-07T06:04:11.105Z,91.21
2023-01-07T06:05:11.207Z,91.24
2023-01-07T06:06:12.081Z,91.16
2023-01-07T06:07:11.075Z,91.24
2023-01-07T06:08:11.086Z,91.02
2023-01-07T06:09:11.076Z,91.14
2023-01-07T06:10:11.086Z,91.03
2023-01-07T06:11:11.109Z,91.06
2023-01-07T06:12:11.080Z,91.09
2023-01-07T06:13:11.102Z,90.85
2023-01-07T06:14:11.080Z,90.66
2023-01-07T06:15:11.080Z,90.81
2023-01-07T06:16:12.150Z,90.65
2023-01-07T06:17:11.086Z,90.88
2023-01-07T06:18:11.081Z,90.99
2023-01-07T06:19:11.074Z,90.87
2023-01-07T06:20:11.082Z,90.97
2023-01-07T06:21:11.078Z,90.65
2023-01-07T06:22:11.083Z,90.65
2023-01-07T06:23:11.086Z,90.54
2023-01-07T06:24:11.079Z,90.39
2023-01-07T06:25:11.082Z,90.37
2023-01-07T06:26:11.088Z,90.01
2023-01-07T06:27:11.089Z,90.17
2023-01-07T06:28:11.078Z,90.22
2023-01-07T06:29:11.114Z,89.95
2023-01-07T06:30:11.087Z,90.23
2023-01-07T06:31:11.155Z,89.96
2023-01-07T06:32:11.087Z,90.13
2023-01-07T06:33:11.078Z,90.20
2023-01-07T06:34:11.080Z,90.20
2023-01-07T06:35:11.091Z,90.05
2023-01-07T06:36:11.088Z,90.15
2023-01-07T06:37:11.085Z,90.29
2023-01-07T06:38:11.091Z,90.27
2023-01-07T06:39:11.082Z,90.11
2023-01-07T06:40:11.082Z,89.91
2023-01-07T06:41:11.088Z,89.92
2023-01-07T06:42:11.079Z,89.78
2023-01-07T06:43:11.094Z,89.88
2023-01-07T06:44:11.094Z,90.06
2023-01-07T06:45:11.101Z,89.87
2023-01-07T06:46:11.114Z,90.20
2023-01-07T06:47:11.083Z,90.32
2023-01-07T06:48:11.080Z,90.17
2023-01-07T06:49:11.084Z,90.34
2023-01-07T06:50:11.084Z,90.31
2023-01-07T06:51:11.081Z,90.64
2023-01-07T06:52:11.080Z,90.40
2023-01-07T06:53:11.083Z,90.39
2023-01-07T06:54:11.089Z,90.60
2023-01-07T06:55:11.081Z,90.53
2023-01-07T06:56:11.081Z,90.34
2023-01-07T06:57:11.084Z,90.43
2023-01-07T06:58:11.082Z,90.65
2023-01-07T06:59:11.088Z,90.70
2023-01-07T07:00:11.074Z,90.63
2023-01-07T07:01:11.180Z,90.57
2023-01-07T07:02:15.131Z,90.61
2023-01-07T07:03:11.093Z,90.80
2023-01-07T07:04:11.076Z,90.79
2023-01-07T07:05:11.072Z,90.76
2023-01-07T07:06:11.062Z,91.06
2023-01-07T07:07:11.064Z,91.13
2023-01-07T07:08:11.065Z,91.01
2023-01-07T07:09:11.063Z,91.00
2023-01-07T07:10:11.093Z,91.00
2023-01-07T07:11:11.069Z,91.16
2023-01-07T07:12:11.061Z,91.35
2023-01-07T07:13:11.068Z,91.26
2023-01-07T07:14:11.068Z,91.28
2023-01-07T07:15:11.067Z,91.38
2023-01-07T07:16:11.156Z,91.59
2023-01-07T07:17:11.063Z,91.59
2023-01-07T07:18:11.066Z,91.51
2023-01-07T07:19:11.071Z,91.73
2023-01-07T07:20:11.063Z,91.79
2023-01-07T07:21:11.067Z,91.62
2023-01-07T07:22:13.071Z,91.55
2023-01-07T07:23:11.063Z,91.66
2023-01-07T07:24:11.069Z,91.85
2023-01-07T07:25:11.075Z,92.10
2023-01-07T07:26:11.063Z,92.08
2023-01-07T07:27:11.066Z,91.86
2023-01-07T07:28:11.088Z,92.10
2023-01-07T07:29:11.076Z,92.54
2023-01-07T07:30:11.067Z,92.48
2023-01-07T07:31:11.153Z,92.49
2023-01-07T07:32:11.069Z,92.50
2023-01-07T07:33:11.069Z,92.60
2023-01-07T07:34:11.099Z,92.49
2023-01-07T07:35:11.100Z,92.17
2023-01-07T07:36:13.067Z,92.39
2023-01-07T07:37:11.083Z,92.33
2023-01-07T07:38:11.066Z,92.19
2023-01-07T07:39:11.071Z,92.38
2023-01-07T07:40:11.095Z,92.45
2023-01-07T07:41:11.064Z,92.46
2023-01-07T07:42:11.069Z,92.20
2023-01-07T07:43:12.955Z,92.25
2023-01-07T07:44:11.083Z,92.34
2023-01-07T07:45:11.069Z,92.69
2023-01-07T07:46:11.159Z,92.71
2023-01-07T07:47:11.066Z,92.48
2023-01-07T07:48:11.092Z,92.61
2023-01-07T07:49:11.073Z,92.62
2023-01-07T07:50:11.068Z,92.64
2023-01-07T07:51:11.071Z,92.79
2023-01-07T07:52:11.078Z,92.82
2023-01-07T07:53:13.087Z,92.87
2023-01-07T07:54:11.069Z,92.89
2023-01-07T07:55:20.795Z,92.97
2023-01-07T07:56:13.555Z,92.92
2023-01-07T07:57:11.071Z,93.09
2023-01-07T07:58:11.081Z,93.22
2023-01-07T07:59:11.073Z,93.28
2023-01-07T08:00:11.066Z,93.19
2023-01-07T08:01:11.179Z,93.30
2023-01-07T08:02:15.141Z,93.04
2023-01-07T08:03:11.106Z,92.97
2023-01-07T08:04:11.071Z,93.33
2023-01-07T08:05:11.072Z,93.71
2023-01-07T08:06:11.070Z,93.71
2023-01-07T08:07:11.070Z,93.66
2023-01-07T08:08:11.071Z,93.44
2023-01-07T08:09:11.073Z,93.45
2023-01-07T08:10:11.071Z,93.46
2023-01-07T08:11:11.070Z,93.36
2023-01-07T08:12:11.075Z,93.53
2023-01-07T08:13:11.076Z,93.52
2023-01-07T08:14:11.072Z,93.54
2023-01-07T08:15:11.072Z,93.61
2023-01-07T08:16:11.139Z,93.60
2023-01-07T08:17:11.071Z,93.77
2023-01-07T08:18:11.071Z,94.00
2023-01-07T08:19:11.070Z,93.78
2023-01-07T08:20:11.071Z,93.95
2023-01-07T08:21:11.069Z,93.79
2023-01-07T08:22:11.083Z,93.99
2023-01-07T08:23:11.083Z,94.07
2023-01-07T08:24:11.075Z,94.31
2023-01-07T08:25:11.081Z,94.55
2023-01-07T08:26:11.072Z,94.70
2023-01-07T08:27:11.069Z,94.68
2023-01-07T08:28:11.118Z,94.36
2023-01-07T08:29:11.080Z,94.27
2023-01-07T08:30:11.083Z,94.21
2023-01-07T08:31:11.238Z,94.00
2023-01-07T08:32:11.081Z,94.07
2023-01-07T08:33:11.080Z,94.01
2023-01-07T08:34:11.095Z,93.86
2023-01-07T08:35:11.089Z,93.91
2023-01-07T08:36:22.003Z,94.02
2023-01-07T08:37:13.333Z,93.73
2023-01-07T08:38:11.072Z,93.79
2023-01-07T08:39:11.083Z,94.01
2023-01-07T08:40:11.080Z,93.78
2023-01-07T08:41:11.077Z,93.52
2023-01-07T08:42:11.076Z,93.41
2023-01-07T08:43:11.076Z,93.62
2023-01-07T08:44:11.072Z,93.61
2023-01-07T08:45:11.079Z,93.62
2023-01-07T08:46:11.079Z,93.54
2023-01-07T08:47:11.082Z,93.58
2023-01-07T08:48:11.076Z,93.56
2023-01-07T08:49:11.074Z,93.60
2023-01-07T08:50:11.077Z,93.65
2023-01-07T08:51:11.083Z,93.61
2023-01-07T08:52:11.078Z,93.74
2023-01-07T08:53:11.079Z,93.90
2023-01-07T08:54:11.078Z,93.79
2023-01-07T08:55:11.075Z,93.96
2023-01-07T08:56:11.075Z,93.77
2023-01-07T08:57:11.078Z,93.60
2023-01-07T08:58:11.080Z,93.39
2023-01-07T08:59:11.086Z,93.62
2023-01-07T09:00:11.078Z,93.69
2023-01-07T09:01:11.261Z,93.64
2023-01-07T09:02:15.159Z,93.50
2023-01-07T09:03:11.073Z,93.49
2023-01-07T09:04:11.076Z,93.45
2023-01-07T09:05:11.081Z,93.22
2023-01-07T09:06:11.088Z,93.38
2023-01-07T09:07:11.094Z,93.35
2023-01-07T09:08:11.077Z,93.35
2023-01-07T09:09:11.074Z,93.24
2023-01-07T09:10:11.075Z,93.27
2023-01-07T09:11:11.088Z,93.24
2023-01-07T09:12:11.334Z,93.22
2023-01-07T09:13:11.084Z,93.33
2023-01-07T09:14:11.074Z,93.31
2023-01-07T09:15:11.076Z,93.18
2023-01-07T09:16:11.196Z,93.35
2023-01-07T09:17:11.087Z,93.41
2023-01-07T09:18:11.078Z,93.16
2023-01-07T09:19:11.083Z,93.07
2023-01-07T09:20:11.109Z,93.07
2023-01-07T09:21:11.081Z,93.00
2023-01-07T09:22:11.081Z,93.09
2023-01-07T09:23:11.077Z,92.99
2023-01-07T09:24:11.073Z,93.27
2023-01-07T09:25:11.096Z,93.43
2023-01-07T09:26:11.095Z,93.36
2023-01-07T09:27:11.076Z,93.27
2023-01-07T09:28:11.095Z,93.04
2023-01-07T09:29:11.093Z,93.23
2023-01-07T09:30:11.093Z,93.44
2023-01-07T09:31:11.120Z,93.50
2023-01-07T09:32:11.078Z,93.36
2023-01-07T09:33:11.084Z,93.63
2023-01-07T09:34:11.089Z,93.66
2023-01-07T09:35:11.081Z,93.59
2023-01-07T09:36:11.094Z,93.83
2023-01-07T09:37:11.087Z,93.67
2023-01-07T09:38:11.093Z,93.68
2023-01-07T09:39:11.093Z,93.58
2023-01-07T09:40:18.081Z,93.50
2023-01-07T09:41:19.081Z,93.46
2023-01-07T09:42:19.078Z,93.56
2023-01-07T09:43:19.089Z,93.62
2023-01-07T09:44:19.090Z,93.45
2023-01-07T09:45:18.096Z,93.33
2023-01-07T09:46:12.096Z,93.48
2023-01-07T09:47:11.083Z,93.60
2023-01-07T09:48:20.089Z,93.96
2023-01-07T09:49:15.087Z,93.86
2023-01-07T09:50:22.260Z,94.14
2023-01-07T09:51:20.074Z,94.18
2023-01-07T09:52:17.091Z,94.20
2023-01-07T09:53:15.107Z,94.26
2023-01-07T09:54:21.079Z,93.96
2023-01-07T09:55:20.078Z,93.98
2023-01-07T09:56:19.084Z,93.91
2023-01-07T09:57:14.119Z,93.87
2023-01-07T09:58:15.082Z,94.15
2023-01-07T09:59:12.080Z,94.20
2023-01-07T10:00:16.065Z,94.15
2023-01-07T10:01:19.217Z,93.98
2023-01-07T10:02:19.120Z,93.88
2023-01-07T10:03:19.060Z,93.88
2023-01-07T10:04:21.116Z,93.71
2023-01-07T10:05:19.070Z,93.83
2023-01-07T10:06:18.065Z,93.85
2023-01-07T10:07:21.061Z,93.64
2023-01-07T10:08:29.117Z,93.58
2023-01-07T10:09:23.313Z,93.52
2023-01-07T10:10:19.070Z,93.50
2023-01-07T10:11:21.074Z,93.86
2023-01-07T10:12:19.102Z,94.11
2023-01-07T10:13:21.065Z,94.33
2023-01-07T10:14:19.066Z,94.47
2023-01-07T10:15:19.064Z,94.53
2023-01-07T10:16:21.150Z,94.65
2023-01-07T10:17:19.066Z,94.69
2023-01-07T10:18:23.066Z,94.65
2023-01-07T10:19:21.065Z,94.68
2023-01-07T10:20:19.066Z,94.62
2023-01-07T10:21:21.085Z,94.65
2023-01-07T10:22:19.067Z,94.91
2023-01-07T10:23:20.066Z,95.14
2023-01-07T10:24:21.851Z,95.18
2023-01-07T10:25:18.063Z,95.11
2023-01-07T10:26:23.080Z,95.00
2023-01-07T10:27:13.075Z,95.07
2023-01-07T10:28:16.061Z,95.53
2023-01-07T10:29:16.067Z,95.87
2023-01-07T10:30:19.064Z,96.22
2023-01-07T10:31:16.077Z,96.09
2023-01-07T10:32:17.071Z,95.91
2023-01-07T10:33:19.088Z,95.65
2023-01-07T10:34:19.066Z,95.52
2023-01-07T10:35:15.071Z,95.65
2023-01-07T10:36:19.065Z,95.62
2023-01-07T10:37:19.074Z,95.64
2023-01-07T10:38:19.065Z,95.26
2023-01-07T10:39:21.068Z,94.74
2023-01-07T10:40:23.067Z,93.82
2023-01-07T10:41:21.069Z,93.52
2023-01-07T10:42:19.069Z,93.45
2023-01-07T10:43:21.067Z,93.18
2023-01-07T10:44:19.079Z,92.61
2023-01-07T10:45:19.093Z,92.64
2023-01-07T10:46:19.134Z,92.45
2023-01-07T10:47:19.074Z,92.32
2023-01-07T10:48:19.067Z,92.52
2023-01-07T10:49:21.065Z,91.67
2023-01-07T10:50:19.130Z,91.54
2023-01-07T10:51:19.066Z,91.10
2023-01-07T10:52:21.092Z,90.71
2023-01-07T10:53:19.394Z,90.46
2023-01-07T10:54:21.066Z,90.58
2023-01-07T10:55:23.068Z,90.89
2023-01-07T10:56:19.070Z,91.13
2023-01-07T10:57:18.076Z,91.06
2023-01-07T10:58:13.078Z,90.93
2023-01-07T10:59:15.202Z,91.24
2023-01-07T11:00:14.074Z,91.46
2023-01-07T11:01:18.156Z,91.55
2023-01-07T11:02:16.349Z,91.68
2023-01-07T11:03:21.086Z,91.86
2023-01-07T11:04:13.070Z,92.32
2023-01-07T11:05:14.172Z,92.25
2023-01-07T11:06:14.064Z,92.40
2023-01-07T11:07:19.092Z,92.72
2023-01-07T11:08:21.072Z,92.74
2023-01-07T11:09:17.070Z,92.61
2023-01-07T11:10:17.067Z,92.72
2023-01-07T11:11:18.068Z,92.56
2023-01-07T11:12:19.076Z,92.50
2023-01-07T11:13:15.079Z,92.69
2023-01-07T11:14:19.079Z,92.72
2023-01-07T11:15:19.077Z,92.61
2023-01-07T11:16:18.187Z,92.44
2023-01-07T11:17:21.071Z,92.46
2023-01-07T11:18:21.086Z,92.51
2023-01-07T11:19:11.080Z,92.46
2023-01-07T11:20:11.069Z,92.43
2023-01-07T11:21:43.501Z,92.47
2023-01-07T11:22:21.351Z,92.21
2023-01-07T11:23:19.108Z,92.30
2023-01-07T11:24:19.077Z,92.46
2023-01-07T11:25:19.073Z,92.23
2023-01-07T11:26:19.076Z,92.21
2023-01-07T11:27:15.068Z,92.27
2023-01-07T11:28:19.090Z,92.41
2023-01-07T11:29:15.077Z,92.31
2023-01-07T11:30:19.070Z,92.27
2023-01-07T11:31:11.067Z,92.48
2023-01-07T11:32:19.080Z,92.43
2023-01-07T11:33:19.072Z,92.58
2023-01-07T11:34:19.070Z,92.86
2023-01-07T11:35:21.215Z,92.75
2023-01-07T11:36:11.074Z,92.65
2023-01-07T11:37:12.072Z,92.63
2023-01-07T11:38:21.072Z,92.42
2023-01-07T11:39:17.079Z,92.30
2023-01-07T11:40:20.076Z,92.02
2023-01-07T11:41:19.089Z,91.97
2023-01-07T11:42:18.075Z,92.15
2023-01-07T11:43:21.075Z,92.26
2023-01-07T11:44:15.073Z,92.38
2023-01-07T11:45:18.091Z,92.36
2023-01-07T11:46:20.172Z,92.28
2023-01-07T11:47:17.358Z,92.19
2023-01-07T11:48:16.069Z,91.85
2023-01-07T11:49:19.082Z,91.79
2023-01-07T11:50:19.087Z,91.32
2023-01-07T11:51:11.071Z,91.00
2023-01-07T11:52:17.077Z,91.01
2023-01-07T11:53:19.081Z,90.79
2023-01-07T11:54:19.075Z,90.85
2023-01-07T11:55:18.073Z,91.02
2023-01-07T11:56:19.073Z,90.66
2023-01-07T11:57:17.073Z,90.57
2023-01-07T11:58:29.634Z,90.66
2023-01-07T11:59:17.260Z,90.27
2023-01-07T12:00:15.079Z,90.33
2023-01-07T12:01:15.103Z,90.16
2023-01-07T12:02:21.126Z,90.14
2023-01-07T12:03:13.122Z,90.05
2023-01-07T12:04:19.070Z,89.97
2023-01-07T12:05:18.075Z,89.83
2023-01-07T12:06:19.081Z,89.76
2023-01-07T12:07:15.081Z,89.77
2023-01-07T12:08:19.079Z,89.63
2023-01-07T12:09:20.075Z,89.73
2023-01-07T12:10:19.082Z,89.64
2023-01-07T12:11:12.082Z,89.47
2023-01-07T12:12:19.075Z,89.56
2023-01-07T12:13:18.085Z,89.22
2023-01-07T12:14:21.079Z,89.04
2023-01-07T12:15:18.083Z,89.03
2023-01-07T12:16:11.159Z,88.88
2023-01-07T12:17:18.116Z,88.70
2023-01-07T12:18:19.078Z,88.50
2023-01-07T12:19:19.088Z,88.33
2023-01-07T12:20:19.077Z,87.90
2023-01-07T12:21:19.088Z,87.68
2023-01-07T12:22:19.079Z,87.37
2023-01-07T12:23:19.079Z,87.17
2023-01-07T12:24:19.079Z,87.14
2023-01-07T12:25:19.077Z,86.89
2023-01-07T12:26:17.076Z,86.96
2023-01-07T12:27:21.078Z,86.62
2023-01-07T12:28:18.111Z,86.44
2023-01-07T12:29:19.082Z,86.38
2023-01-07T12:30:19.076Z,86.24
2023-01-07T12:31:19.093Z,85.86
2023-01-07T12:32:19.082Z,85.84
2023-01-07T12:33:19.079Z,85.69
2023-01-07T12:34:21.076Z,85.54
2023-01-07T12:35:17.090Z,85.45
2023-01-07T12:36:18.091Z,85.11
2023-01-07T12:37:19.109Z,84.94
2023-01-07T12:38:17.078Z,84.67
2023-01-07T12:39:18.076Z,84.34
2023-01-07T12:40:19.084Z,84.01
2023-01-07T12:41:16.078Z,84.18
2023-01-07T12:42:14.080Z,83.94
2023-01-07T12:43:18.078Z,83.50
2023-01-07T12:44:19.083Z,83.39
2023-01-07T12:45:17.086Z,83.66
2023-01-07T12:46:13.132Z,83.82
2023-01-07T12:47:30.478Z,83.57
2023-01-07T12:48:20.363Z,83.73
2023-01-07T12:49:19.083Z,83.77
2023-01-07T12:50:19.080Z,84.21
2023-01-07T12:51:23.076Z,84.32
2023-01-07T12:52:17.079Z,84.51